Time;durP1;ratioP1;P1;durP2;ratioP2;P2;SDS_P1;SDS_P2;PMS_P1;PMS_P2;Temp;Humidity;BMP_temperature;BMP_pressure;BME280_temperature;BME280_humidity;BME280_pressure;Samples;Min_cycle;Max_cycle;Signal;HPM_P1;HPM_P2
2021/01/04 00:01:46;;;;;;;34.67;15.87;;;2.00;99.90;;;;;;5078467;28;21124;-51
2021/01/04 00:05:07;;;;;;;30.23;14.70;;;2.00;99.90;;;;;;5069833;28;20458;-51
2021/01/04 00:08:24;;;;;;;33.70;14.30;;;2.10;99.90;;;;;;5072636;28;20443;-51
2021/01/04 00:11:10;;;;;;;29.60;13.67;;;2.20;99.90;;;;;;5066171;28;20507;-50
2021/01/04 00:13:42;;;;;;;33.43;14.80;;;2.30;99.90;;;;;;5068153;28;20454;-52
2021/01/04 00:16:18;;;;;;;35.13;15.73;;;2.20;99.90;;;;;;5071026;28;20458;-50
2021/01/04 00:18:47;;;;;;;30.30;14.43;;;2.20;99.90;;;;;;5068971;28;20486;-51
2021/01/04 00:21:26;;;;;;;29.60;14.27;;;2.20;99.90;;;;;;5070189;28;20458;-51
2021/01/04 00:24:02;;;;;;;32.97;15.10;;;2.20;99.90;;;;;;5063519;28;20447;-51
2021/01/04 00:26:33;;;;;;;32.37;13.23;;;2.20;99.90;;;;;;5069165;28;20451;-51
2021/01/04 00:29:04;;;;;;;32.00;15.10;;;2.20;99.90;;;;;;5070163;28;20520;-51
2021/01/04 00:31:34;;;;;;;26.67;13.27;;;2.00;99.90;;;;;;5069886;28;20451;-51
2021/01/04 00:34:08;;;;;;;32.27;14.10;;;2.00;99.90;;;;;;5075724;28;20443;-51
2021/01/04 00:36:47;;;;;;;31.40;14.70;;;2.00;99.90;;;;;;5071559;28;20482;-51
2021/01/04 00:39:39;;;;;;;37.20;15.70;;;2.00;99.90;;;;;;5081294;28;20481;-51
2021/01/04 00:42:18;;;;;;;28.33;14.03;;;2.00;99.90;;;;;;5070093;28;20447;-51
2021/01/04 00:45:00;;;;;;;31.83;15.07;;;2.10;99.90;;;;;;5069351;28;20809;-51
2021/01/04 00:47:37;;;;;;;33.20;14.47;;;2.00;99.90;;;;;;5069902;28;20446;-51
2021/01/04 00:50:11;;;;;;;34.63;15.40;;;2.00;99.90;;;;;;5069468;28;20841;-51
2021/01/04 00:52:44;;;;;;;29.77;14.03;;;2.10;99.90;;;;;;5070623;28;20443;-51
2021/01/04 00:55:27;;;;;;;31.40;14.57;;;2.10;99.90;;;;;;5070164;28;20457;-51
2021/01/04 00:58:34;;;;;;;35.00;15.80;;;2.10;99.90;;;;;;5069717;28;20504;-51
2021/01/04 01:01:07;;;;;;;32.20;15.90;;;2.20;99.90;;;;;;5069865;28;20439;-51
2021/01/04 01:03:51;;;;;;;33.90;15.63;;;2.30;99.90;;;;;;5071301;28;21021;-51
2021/01/04 01:06:26;;;;;;;33.83;15.43;;;2.30;99.90;;;;;;5074169;28;20450;-51
2021/01/04 01:08:55;;;;;;;32.67;14.97;;;2.30;99.90;;;;;;5074445;28;20477;-51
2021/01/04 01:11:35;;;;;;;33.53;15.70;;;2.30;99.90;;;;;;5078831;28;20461;-51
2021/01/04 01:14:10;;;;;;;31.50;14.50;;;2.30;99.90;;;;;;5078974;28;20508;-51
2021/01/04 01:17:19;;;;;;;30.47;14.57;;;2.20;99.90;;;;;;5073631;28;20450;-51
2021/01/04 01:19:48;;;;;;;32.50;14.40;;;2.20;99.90;;;;;;5025695;28;20497;-51
2021/01/04 01:22:21;;;;;;;38.77;17.00;;;2.20;99.90;;;;;;5073522;28;20454;-51
2021/01/04 01:24:49;;;;;;;42.70;16.53;;;2.10;99.90;;;;;;5075273;28;20451;-50
2021/01/04 01:27:45;;;;;;;32.17;15.03;;;2.10;99.90;;;;;;5073038;28;20470;-51
2021/01/04 01:30:49;;;;;;;30.43;14.30;;;2.20;99.90;;;;;;5072745;28;20463;-51
2021/01/04 01:33:49;;;;;;;29.77;15.23;;;2.20;99.90;;;;;;5036995;28;20492;-51
2021/01/04 01:36:28;;;;;;;31.57;14.97;;;2.20;99.90;;;;;;5073068;28;20517;-51
2021/01/04 01:39:18;;;;;;;35.43;15.43;;;2.20;99.90;;;;;;5072792;28;20482;-51
2021/01/04 01:42:35;;;;;;;31.23;14.30;;;2.30;99.90;;;;;;5069600;28;20443;-50
2021/01/04 01:45:13;;;;;;;39.03;16.10;;;2.30;99.90;;;;;;5075587;28;20500;-51
2021/01/04 01:47:50;;;;;;;27.70;12.73;;;2.10;99.90;;;;;;5072628;28;20823;-52
2021/01/04 01:50:29;;;;;;;36.33;15.53;;;2.20;99.90;;;;;;5073580;28;21297;-51
2021/01/04 01:53:03;;;;;;;30.03;14.10;;;2.00;99.90;;;;;;5076569;28;20450;-51
2021/01/04 01:55:56;;;;;;;33.97;15.00;;;2.00;99.90;;;;;;5073306;28;20518;-51
2021/01/04 01:59:10;;;;;;;37.23;16.17;;;2.00;99.90;;;;;;5072580;28;20825;-51
2021/01/04 02:01:46;;;;;;;35.73;16.03;;;1.90;99.90;;;;;;5067389;28;20454;-51
2021/01/04 02:04:22;;;;;;;35.83;15.60;;;1.90;99.90;;;;;;5072533;28;20943;-51
2021/01/04 02:07:02;;;;;;;32.00;13.50;;;1.70;99.90;;;;;;5072469;28;20441;-51
2021/01/04 02:09:31;;;;;;;33.43;15.57;;;1.90;99.90;;;;;;5064169;28;20465;-51
2021/01/04 02:12:09;;;;;;;32.53;14.10;;;2.00;99.90;;;;;;5072413;28;20485;-51
2021/01/04 02:14:46;;;;;;;28.97;14.03;;;1.90;99.90;;;;;;5071728;28;20454;-51
2021/01/04 02:17:38;;;;;;;23.13;10.60;;;2.00;99.90;;;;;;5072141;28;20512;-51
2021/01/04 02:20:33;;;;;;;21.70;10.93;;;2.00;99.90;;;;;;5068266;28;20939;-51
2021/01/04 02:23:20;;;;;;;25.13;11.17;;;2.00;99.90;;;;;;5072426;28;20458;-51
2021/01/04 02:25:50;;;;;;;19.43;9.47;;;2.10;99.90;;;;;;5071728;28;20450;-51
2021/01/04 02:28:21;;;;;;;23.80;11.40;;;2.00;99.90;;;;;;5071762;28;21069;-51
2021/01/04 02:30:48;;;;;;;20.83;10.33;;;2.00;99.90;;;;;;5071872;28;20850;-51
2021/01/04 02:33:16;;;;;;;16.00;8.07;;;2.00;99.90;;;;;;5071693;28;20446;-51
2021/01/04 02:35:43;;;;;;;19.17;9.47;;;2.00;99.90;;;;;;5071646;28;20458;-51
2021/01/04 02:38:11;;;;;;;18.13;8.83;;;1.90;99.90;;;;;;5071938;28;20455;-51
2021/01/04 02:40:37;;;;;;;27.03;10.20;;;1.90;99.90;;;;;;5071457;28;20556;-51
2021/01/04 02:43:05;;;;;;;19.60;8.47;;;1.70;99.90;;;;;;5071758;28;20896;-51
2021/01/04 02:45:33;;;;;;;16.70;8.40;;;1.90;99.90;;;;;;5071920;28;20503;-51
2021/01/04 02:48:28;;;;;;;18.83;9.53;;;2.00;99.90;;;;;;5071391;28;20450;-51
2021/01/04 02:51:02;;;;;;;18.97;9.27;;;2.10;99.90;;;;;;5061140;28;20459;-51
2021/01/04 02:53:54;;;;;;;20.37;9.67;;;1.90;99.90;;;;;;5071100;28;20959;-51
2021/01/04 02:56:49;;;;;;;20.30;9.20;;;1.80;99.90;;;;;;5071720;28;20450;-51
2021/01/04 02:59:47;;;;;;;19.73;9.97;;;1.90;99.90;;;;;;5071112;28;20486;-51
2021/01/04 03:02:17;;;;;;;17.77;8.27;;;2.00;99.90;;;;;;5066435;28;20508;-51
2021/01/04 03:04:47;;;;;;;15.97;8.83;;;2.00;99.90;;;;;;5071430;28;20451;-51
2021/01/04 03:07:18;;;;;;;16.13;8.30;;;2.10;99.90;;;;;;5071077;28;20451;-51
2021/01/04 03:09:46;;;;;;;19.17;8.80;;;2.10;99.90;;;;;;5070797;28;21049;-51
2021/01/04 03:12:15;;;;;;;16.27;8.73;;;2.20;99.90;;;;;;5071160;28;20451;-51
2021/01/04 03:14:55;;;;;;;15.53;8.60;;;2.10;99.90;;;;;;5071938;28;20948;-51
2021/01/04 03:17:35;;;;;;;20.90;9.37;;;2.10;99.90;;;;;;5072631;28;20503;-51
2021/01/04 03:20:06;;;;;;;18.07;8.57;;;2.20;99.90;;;;;;5070425;28;20479;-51
2021/01/04 03:22:32;;;;;;;18.63;7.90;;;2.10;99.90;;;;;;5070892;28;20948;-51
2021/01/04 03:24:59;;;;;;;17.33;8.70;;;2.10;99.90;;;;;;5062714;28;20508;-51
2021/01/04 03:27:29;;;;;;;19.63;8.97;;;2.20;99.90;;;;;;5070134;28;20975;-51
2021/01/04 03:29:56;;;;;;;17.70;8.23;;;2.10;99.90;;;;;;5066115;28;20467;-51
2021/01/04 03:32:23;;;;;;;18.23;7.53;;;2.20;99.90;;;;;;5071117;28;20492;-51
2021/01/04 03:34:50;;;;;;;16.83;8.83;;;2.30;99.90;;;;;;5067630;28;20443;-51
2021/01/04 03:37:17;;;;;;;18.47;8.37;;;2.10;99.90;;;;;;5070692;28;21095;-51
2021/01/04 03:39:44;;;;;;;19.43;8.70;;;2.00;99.90;;;;;;5070038;28;20482;-51
2021/01/04 03:42:11;;;;;;;16.50;8.50;;;2.10;99.90;;;;;;5065400;28;20859;-51
2021/01/04 03:44:38;;;;;;;16.93;8.30;;;2.10;99.90;;;;;;5070687;28;20447;-51
2021/01/04 03:47:05;;;;;;;17.93;8.20;;;2.10;99.90;;;;;;5071047;28;20443;-51
2021/01/04 03:49:32;;;;;;;19.67;9.33;;;2.10;99.90;;;;;;5071118;28;20992;-50
2021/01/04 03:52:00;;;;;;;19.67;8.70;;;2.10;99.90;;;;;;5069715;28;20850;-50
2021/01/04 03:54:27;;;;;;;23.00;9.70;;;2.00;99.90;;;;;;5072326;28;20956;-51
2021/01/04 03:56:54;;;;;;;18.13;8.97;;;2.10;99.90;;;;;;5070309;28;20819;-51
2021/01/04 03:59:20;;;;;;;16.77;8.57;;;1.90;99.90;;;;;;5069944;28;20482;-51
2021/01/04 04:01:48;;;;;;;20.97;8.97;;;1.90;99.90;;;;;;5070003;28;20447;-51
2021/01/04 04:04:16;;;;;;;20.50;8.30;;;2.00;99.90;;;;;;5062446;28;21028;-51
2021/01/04 04:06:43;;;;;;;24.33;10.60;;;2.10;99.90;;;;;;5070550;28;20443;-50
2021/01/04 04:09:10;;;;;;;28.30;14.90;;;2.10;99.90;;;;;;5070133;28;20478;-51
2021/01/04 04:11:37;;;;;;;21.73;10.93;;;2.00;99.90;;;;;;5070254;28;20447;-51
2021/01/04 04:14:07;;;;;;;17.33;7.97;;;2.10;99.90;;;;;;5070191;28;20465;-51
2021/01/04 04:16:34;;;;;;;16.23;7.87;;;2.20;99.90;;;;;;5070183;28;20546;-51
2021/01/04 04:19:00;;;;;;;18.97;10.00;;;2.20;99.90;;;;;;5069756;28;20470;-51
2021/01/04 04:21:28;;;;;;;18.30;8.67;;;2.10;99.90;;;;;;5070292;28;20451;-51
2021/01/04 04:23:54;;;;;;;23.43;12.60;;;2.10;99.90;;;;;;5069956;28;20451;-51
2021/01/04 04:26:24;;;;;;;22.60;8.80;;;1.90;99.90;;;;;;5070729;28;20451;-51
2021/01/04 04:28:51;;;;;;;31.23;13.53;;;1.70;99.90;;;;;;5070291;28;20466;-51
2021/01/04 04:31:18;;;;;;;20.17;9.60;;;1.70;99.90;;;;;;5070140;28;20450;-51
2021/01/04 04:33:45;;;;;;;21.57;9.27;;;1.90;99.90;;;;;;5070343;28;20447;-51
2021/01/04 04:36:17;;;;;;;20.47;9.40;;;1.90;99.90;;;;;;5069967;28;20450;-51
2021/01/04 04:38:45;;;;;;;16.73;7.93;;;1.70;99.90;;;;;;5073375;28;20991;-51
2021/01/04 04:41:22;;;;;;;18.63;8.67;;;1.70;99.90;;;;;;5074062;28;20479;-50
2021/01/04 04:43:52;;;;;;;17.70;8.93;;;1.50;99.90;;;;;;5074037;28;20451;-51
2021/01/04 04:46:31;;;;;;;18.30;8.47;;;1.30;99.90;;;;;;5073756;28;20462;-51
2021/01/04 04:49:01;;;;;;;19.23;9.30;;;1.40;99.90;;;;;;5073877;28;20470;-51
2021/01/04 04:51:47;;;;;;;16.07;8.20;;;1.40;99.90;;;;;;5073763;28;20461;-51
2021/01/04 04:54:40;;;;;;;21.23;9.67;;;1.40;99.90;;;;;;5073641;28;21017;-51
2021/01/04 04:57:22;;;;;;;23.07;10.60;;;1.40;99.90;;;;;;5073644;28;20964;-51
2021/01/04 05:00:01;;;;;;;21.13;9.20;;;1.40;99.90;;;;;;5104824;22;20496;-55
2021/01/04 05:02:38;;;;;;;20.80;8.70;;;1.50;99.90;;;;;;5093805;28;20453;-55
2021/01/04 05:05:18;;;;;;;20.23;9.47;;;1.50;99.90;;;;;;5093938;28;20450;-55
2021/01/04 05:07:55;;;;;;;17.80;8.63;;;1.40;99.90;;;;;;5086568;28;20445;-55
2021/01/04 05:10:24;;;;;;;20.70;9.27;;;1.20;99.90;;;;;;5093300;28;20986;-55
2021/01/04 05:13:04;;;;;;;19.93;9.43;;;1.20;99.90;;;;;;5093493;28;20464;-55
2021/01/04 05:15:42;;;;;;;16.40;8.80;;;1.30;99.90;;;;;;5070406;28;20447;-55
2021/01/04 05:18:45;;;;;;;24.43;9.60;;;1.20;99.90;;;;;;5073475;28;20449;-55
2021/01/04 05:21:42;;;;;;;21.73;10.20;;;1.10;99.90;;;;;;5076602;28;20502;-55
2021/01/04 05:24:44;;;;;;;21.53;9.90;;;1.10;99.90;;;;;;5087001;28;20450;-55
2021/01/04 05:27:52;;;;;;;20.03;8.60;;;1.00;99.90;;;;;;5069184;28;20450;-55
2021/01/04 05:30:31;;;;;;;18.60;8.57;;;0.90;99.90;;;;;;5069361;28;20465;-55
2021/01/04 05:33:26;;;;;;;18.80;8.83;;;0.90;99.90;;;;;;5073726;28;20450;-55
2021/01/04 05:35:57;;;;;;;18.30;7.80;;;0.90;99.90;;;;;;5082738;28;20506;-55
2021/01/04 05:38:37;;;;;;;23.20;8.97;;;0.90;99.90;;;;;;5073686;28;20860;-55
2021/01/04 05:41:21;;;;;;;19.87;8.70;;;0.90;99.90;;;;;;5066816;28;20583;-55
2021/01/04 05:44:06;;;;;;;20.73;9.30;;;0.80;99.90;;;;;;5086037;28;21015;-55
2021/01/04 05:46:41;;;;;;;17.03;7.53;;;0.80;99.90;;;;;;5082014;28;20972;-55
2021/01/04 05:49:14;;;;;;;22.03;9.40;;;0.90;99.90;;;;;;5076728;28;20474;-55
2021/01/04 05:51:43;;;;;;;20.30;10.00;;;0.90;99.90;;;;;;5073277;28;20453;-55
2021/01/04 05:54:11;;;;;;;21.57;9.17;;;0.80;99.90;;;;;;5071606;28;20463;-54
2021/01/04 05:56:38;;;;;;;18.87;8.43;;;0.80;99.90;;;;;;5081505;28;20460;-55
2021/01/04 05:59:12;;;;;;;19.57;8.73;;;0.70;99.90;;;;;;5085332;28;20480;-53
2021/01/04 06:01:40;;;;;;;22.47;9.50;;;0.80;99.90;;;;;;5073128;28;21037;-54
2021/01/04 06:04:08;;;;;;;20.57;8.53;;;0.80;99.90;;;;;;5073079;28;20454;-54
2021/01/04 06:06:45;;;;;;;21.83;9.10;;;0.80;99.90;;;;;;5070910;28;20444;-54
2021/01/04 06:09:16;;;;;;;24.43;9.10;;;1.00;99.90;;;;;;5073690;28;20985;-54
2021/01/04 06:11:51;;;;;;;20.40;9.13;;;1.10;99.90;;;;;;5073674;28;20454;-54
2021/01/04 06:14:19;;;;;;;24.80;12.00;;;1.10;99.90;;;;;;5072672;28;20454;-54
2021/01/04 06:16:47;;;;;;;27.77;12.20;;;1.10;99.90;;;;;;5073306;28;20454;-54
2021/01/04 06:19:17;;;;;;;22.13;10.50;;;1.00;99.90;;;;;;5075872;28;20478;-54
2021/01/04 06:21:49;;;;;;;30.60;15.87;;;1.10;99.90;;;;;;5073597;28;20451;-54
2021/01/04 06:24:29;;;;;;;22.93;10.90;;;1.30;99.90;;;;;;5076690;28;20441;-54
2021/01/04 06:27:00;;;;;;;27.37;12.47;;;1.30;99.90;;;;;;5091998;28;20453;-54
2021/01/04 06:29:49;;;;;;;22.43;9.43;;;1.30;99.90;;;;;;5084411;28;20594;-54
2021/01/04 06:32:24;;;;;;;17.60;8.00;;;1.20;99.90;;;;;;5075983;28;20948;-54
2021/01/04 06:34:54;;;;;;;20.80;9.30;;;1.30;99.90;;;;;;5072474;28;20446;-54
2021/01/04 06:37:24;;;;;;;20.20;9.00;;;1.20;99.90;;;;;;5072810;28;20580;-54
2021/01/04 06:40:02;;;;;;;19.83;9.00;;;1.00;99.90;;;;;;5088045;28;20484;-54
2021/01/04 06:42:34;;;;;;;17.03;9.00;;;1.10;99.90;;;;;;5092011;28;20499;-54
2021/01/04 06:45:15;;;;;;;21.03;9.47;;;1.00;99.90;;;;;;5083107;28;20454;-54
2021/01/04 06:47:51;;;;;;;22.00;9.47;;;1.00;99.90;;;;;;5092026;28;20514;-54
2021/01/04 06:50:26;;;;;;;22.77;9.33;;;1.00;99.90;;;;;;5063703;28;20842;-54
2021/01/04 06:53:25;;;;;;;19.87;9.20;;;1.00;99.90;;;;;;5080090;28;20505;-53
2021/01/04 06:56:20;;;;;;;19.90;9.80;;;0.80;99.90;;;;;;5083868;28;20450;-54
2021/01/04 06:59:29;;;;;;;22.00;9.40;;;0.70;99.90;;;;;;5091624;28;20817;-54
2021/01/04 07:02:21;;;;;;;18.40;8.63;;;0.70;99.90;;;;;;5068550;28;20457;-54
2021/01/04 07:05:31;;;;;;;20.90;9.70;;;0.70;99.90;;;;;;5072233;28;20955;-53
2021/01/04 07:08:18;;;;;;;21.07;9.30;;;0.80;99.90;;;;;;5051355;28;20450;-54
2021/01/04 07:10:59;;;;;;;22.40;8.97;;;0.80;99.90;;;;;;5071474;28;20458;-54
2021/01/04 07:13:43;;;;;;;19.40;9.13;;;0.80;99.90;;;;;;5080139;28;20468;-54
2021/01/04 07:16:50;;;;;;;21.93;9.60;;;0.80;99.90;;;;;;5091150;28;20455;-54
2021/01/04 07:19:42;;;;;;;20.70;8.57;;;0.80;99.90;;;;;;5066242;28;20904;-54
2021/01/04 07:22:13;;;;;;;19.20;9.83;;;0.80;99.90;;;;;;5075669;28;20456;-54
2021/01/04 07:24:59;;;;;;;24.10;9.47;;;0.90;99.90;;;;;;5074801;28;20461;-54
2021/01/04 07:27:41;;;;;;;18.33;9.30;;;0.90;99.90;;;;;;5076209;28;21160;-54
2021/01/04 07:30:26;;;;;;;23.27;9.17;;;0.90;99.90;;;;;;5083367;28;20496;-54
2021/01/04 07:33:00;;;;;;;25.07;10.83;;;0.90;99.90;;;;;;5073938;28;20451;-54
2021/01/04 07:35:35;;;;;;;24.27;9.53;;;1.00;99.90;;;;;;5073580;28;20864;-54
2021/01/04 07:38:23;;;;;;;23.27;9.40;;;1.00;99.90;;;;;;5075916;28;20501;-54
2021/01/04 07:41:07;;;;;;;19.00;8.93;;;1.20;99.90;;;;;;5075747;28;20478;-54
2021/01/04 07:44:09;;;;;;;18.63;8.77;;;1.20;99.90;;;;;;5075706;28;20492;-54
2021/01/04 07:47:07;;;;;;;20.87;8.90;;;1.20;99.90;;;;;;5039765;28;20497;-54
2021/01/04 07:50:10;;;;;;;19.17;8.10;;;1.10;99.90;;;;;;5049864;28;20887;-54
2021/01/04 07:53:22;;;;;;;21.73;11.50;;;1.50;99.90;;;;;;5047777;28;20453;-54
2021/01/04 07:56:17;;;;;;;30.57;13.63;;;1.40;99.90;;;;;;5024794;28;20985;-54
2021/01/04 07:59:06;;;;;;;28.30;13.83;;;1.30;99.90;;;;;;5066908;28;20451;-54
2021/01/04 08:02:03;;;;;;;28.33;14.83;;;1.30;99.90;;;;;;5070194;28;20479;-54
2021/01/04 08:05:12;;;;;;;28.63;11.20;;;1.50;99.90;;;;;;5065359;28;20455;-55
2021/01/04 08:07:53;;;;;;;23.30;10.20;;;1.60;99.90;;;;;;5043862;28;20454;-54
2021/01/04 08:10:49;;;;;;;34.00;16.37;;;1.70;99.90;;;;;;5069504;28;20835;-54
2021/01/04 08:13:54;;;;;;;23.23;10.70;;;1.70;99.90;;;;;;5062068;28;20457;-54
2021/01/04 08:16:23;;;;;;;35.07;12.83;;;1.70;99.90;;;;;;5070849;28;20461;-54
2021/01/04 08:18:57;;;;;;;42.73;18.17;;;1.70;99.90;;;;;;5070327;28;20454;-54
2021/01/04 08:21:39;;;;;;;42.03;20.90;;;1.70;99.90;;;;;;5069190;28;20910;-54
2021/01/04 08:24:17;;;;;;;28.23;10.10;;;1.70;99.90;;;;;;5070681;28;20451;-54
2021/01/04 08:27:00;;;;;;;31.70;13.20;;;1.80;99.90;;;;;;5055671;28;20446;-54
2021/01/04 08:29:37;;;;;;;30.57;14.27;;;1.80;99.90;;;;;;5070271;28;20466;-55
2021/01/04 08:32:15;;;;;;;22.20;10.50;;;1.90;99.90;;;;;;5070521;28;20449;-54
2021/01/04 08:34:45;;;;;;;35.50;17.13;;;1.90;99.90;;;;;;5072735;28;20445;-54
2021/01/04 08:37:13;;;;;;;20.70;9.63;;;1.90;99.90;;;;;;5078527;28;20458;-54
2021/01/04 08:39:44;;;;;;;27.63;13.50;;;1.90;99.90;;;;;;5070030;28;20482;-54
2021/01/04 08:42:30;;;;;;;25.70;12.27;;;2.00;99.90;;;;;;5068372;28;20463;-54
2021/01/04 08:45:01;;;;;;;28.10;13.40;;;1.90;99.90;;;;;;5061332;28;20450;-54
2021/01/04 08:47:37;;;;;;;25.43;12.47;;;1.90;99.90;;;;;;5059818;28;20827;-54
2021/01/04 08:50:13;;;;;;;26.97;12.60;;;2.00;99.90;;;;;;5069741;28;20466;-54
2021/01/04 08:52:49;;;;;;;19.73;10.20;;;2.00;99.90;;;;;;5065142;28;20463;-54
2021/01/04 08:55:28;;;;;;;24.67;12.43;;;1.90;99.90;;;;;;5064608;28;20462;-54
2021/01/04 08:57:55;;;;;;;26.67;11.80;;;1.90;99.90;;;;;;5059430;28;20470;-54
2021/01/04 09:00:25;;;;;;;22.10;10.37;;;1.80;99.90;;;;;;5058565;28;20493;-54
2021/01/04 09:02:54;;;;;;;19.50;10.33;;;1.80;99.90;;;;;;5058860;28;20454;-54
2021/01/04 09:05:33;;;;;;;21.37;10.03;;;2.00;99.90;;;;;;5060224;28;20459;-54
2021/01/04 09:08:00;;;;;;;30.13;12.97;;;2.10;99.90;;;;;;5058642;28;20469;-54
2021/01/04 09:10:37;;;;;;;21.40;11.67;;;2.10;99.90;;;;;;5059879;28;20520;-54
2021/01/04 09:13:26;;;;;;;21.50;10.80;;;2.10;99.90;;;;;;5060443;28;20508;-53
2021/01/04 09:15:55;;;;;;;19.80;9.57;;;2.10;99.90;;;;;;5062569;28;20454;-53
2021/01/04 09:18:34;;;;;;;21.80;11.10;;;2.30;99.90;;;;;;5060832;28;20462;-54
2021/01/04 09:21:02;;;;;;;24.40;11.47;;;2.30;99.90;;;;;;5061918;28;20486;-53
2021/01/04 09:23:35;;;;;;;32.20;15.90;;;2.20;99.90;;;;;;5061589;28;20488;-54
2021/01/04 09:26:12;;;;;;;30.97;14.70;;;2.40;99.90;;;;;;5063074;28;20979;-54
2021/01/04 09:28:42;;;;;;;32.30;15.20;;;2.30;99.90;;;;;;5062090;28;20457;-54
2021/01/04 09:31:12;;;;;;;27.03;12.13;;;2.10;99.90;;;;;;5063277;28;20462;-54
2021/01/04 09:33:47;;;;;;;33.77;12.43;;;2.10;99.90;;;;;;5064471;28;20462;-54
2021/01/04 09:36:15;;;;;;;22.70;10.60;;;2.20;99.90;;;;;;5062550;28;20462;-54
2021/01/04 09:38:42;;;;;;;22.37;10.20;;;2.30;99.90;;;;;;5062836;28;20458;-54
2021/01/04 09:41:12;;;;;;;27.73;11.80;;;2.40;99.90;;;;;;5066319;28;20483;-54
2021/01/04 09:43:40;;;;;;;23.23;10.97;;;2.40;99.90;;;;;;5063805;28;20459;-54
2021/01/04 09:46:29;;;;;;;22.87;10.20;;;2.50;99.90;;;;;;5063043;28;20462;-55
2021/01/04 09:48:58;;;;;;;26.13;13.30;;;2.70;99.90;;;;;;5064864;28;20863;-54
2021/01/04 09:51:35;;;;;;;40.00;18.77;;;2.70;99.90;;;;;;5060838;28;20464;-53
2021/01/04 09:54:05;;;;;;;28.90;14.47;;;2.80;99.90;;;;;;5062383;28;20461;-54
2021/01/04 09:56:36;;;;;;;28.90;11.90;;;2.90;99.90;;;;;;5063362;28;20459;-54
2021/01/04 09:59:05;;;;;;;34.07;12.57;;;2.90;99.90;;;;;;5064210;28;20494;-54
2021/01/04 10:01:42;;;;;;;24.17;12.03;;;2.80;99.90;;;;;;5063433;28;20493;-54
2021/01/04 10:04:12;;;;;;;24.60;11.20;;;2.80;99.90;;;;;;5064040;28;20474;-54
2021/01/04 10:06:41;;;;;;;30.20;14.00;;;2.80;99.90;;;;;;5065156;28;20469;-54
2021/01/04 10:09:17;;;;;;;28.57;11.67;;;2.80;99.90;;;;;;5061702;28;20577;-53
2021/01/04 10:11:46;;;;;;;22.23;11.17;;;3.00;99.90;;;;;;5065846;28;20482;-54
2021/01/04 10:14:17;;;;;;;21.70;10.07;;;3.20;99.90;;;;;;5062991;28;20967;-54
2021/01/04 10:16:50;;;;;;;21.27;9.80;;;3.50;99.90;;;;;;5062840;28;20462;-54
2021/01/04 10:19:23;;;;;;;22.83;11.23;;;3.90;99.90;;;;;;5063368;28;20510;-54
2021/01/04 10:21:58;;;;;;;32.70;15.50;;;4.00;99.90;;;;;;5062520;28;20533;-54
2021/01/04 10:24:31;;;;;;;26.50;12.37;;;4.00;99.90;;;;;;5061666;28;20525;-54
2021/01/04 10:27:02;;;;;;;33.23;14.90;;;4.20;99.90;;;;;;5062121;28;20463;-54
2021/01/04 10:29:29;;;;;;;25.97;12.30;;;4.20;99.90;;;;;;5063376;28;20502;-54
2021/01/04 10:32:07;;;;;;;20.47;10.60;;;4.30;99.90;;;;;;5061498;28;20490;-54
2021/01/04 10:34:45;;;;;;;21.13;10.63;;;4.40;99.90;;;;;;5063190;28;20880;-54
2021/01/04 10:37:36;;;;;;;33.43;14.93;;;4.30;99.90;;;;;;5061962;28;20492;-54
2021/01/04 10:40:06;;;;;;;27.23;12.63;;;4.20;99.90;;;;;;5062143;28;20551;-54
2021/01/04 10:42:34;;;;;;;36.23;16.77;;;4.00;99.90;;;;;;5061152;28;20898;-54
2021/01/04 10:45:06;;;;;;;25.63;10.70;;;4.00;99.90;;;;;;5062398;28;20462;-54
2021/01/04 10:47:44;;;;;;;35.53;17.10;;;3.80;99.90;;;;;;5057539;28;20461;-54
2021/01/04 10:50:15;;;;;;;21.27;10.53;;;3.70;99.90;;;;;;5061014;28;20481;-54
2021/01/04 10:52:52;;;;;;;20.93;8.57;;;3.60;99.90;;;;;;5061920;28;20874;-55
2021/01/04 10:55:22;;;;;;;20.97;9.70;;;3.60;99.90;;;;;;5060615;28;20462;-53
2021/01/04 10:57:52;;;;;;;24.13;10.70;;;3.60;99.90;;;;;;5060858;28;20536;-54
2021/01/04 11:00:24;;;;;;;26.80;13.60;;;3.20;99.90;;;;;;5089881;22;20500;-55
2021/01/04 11:02:54;;;;;;;25.70;11.87;;;3.30;99.90;;;;;;5071853;28;20561;-55
2021/01/04 11:05:34;;;;;;;29.53;12.13;;;3.10;99.90;;;;;;5076505;28;20884;-56
2021/01/04 11:08:14;;;;;;;25.13;11.60;;;3.30;99.90;;;;;;5081524;28;20986;-56
2021/01/04 11:10:50;;;;;;;24.53;11.27;;;3.20;99.90;;;;;;5078661;28;20557;-55
2021/01/04 11:13:26;;;;;;;26.00;12.90;;;3.10;99.90;;;;;;5086028;28;20468;-55
2021/01/04 11:16:11;;;;;;;22.77;10.90;;;3.10;99.90;;;;;;5085236;28;20464;-55
2021/01/04 11:18:51;;;;;;;21.83;9.90;;;3.00;99.90;;;;;;5077225;28;20969;-54
2021/01/04 11:21:19;;;;;;;21.20;9.70;;;3.10;99.90;;;;;;5069877;28;20489;-54
2021/01/04 11:23:46;;;;;;;27.93;11.83;;;3.00;99.90;;;;;;5083897;28;20466;-57
2021/01/04 11:26:13;;;;;;;25.33;10.73;;;2.80;99.90;;;;;;5069651;28;20489;-57
2021/01/04 11:28:39;;;;;;;25.13;14.73;;;2.60;99.90;;;;;;5088731;28;20462;-57
2021/01/04 11:31:06;;;;;;;28.73;16.43;;;2.60;99.90;;;;;;5082476;28;20486;-57
2021/01/04 11:33:32;;;;;;;20.20;9.87;;;2.70;99.90;;;;;;5080412;28;20464;-57
2021/01/04 11:35:59;;;;;;;24.57;11.13;;;2.90;99.90;;;;;;5077367;28;20470;-54
2021/01/04 11:38:27;;;;;;;24.47;11.60;;;2.90;99.90;;;;;;5085515;28;20457;-57
2021/01/04 11:40:55;;;;;;;32.33;14.30;;;2.90;99.90;;;;;;5087263;28;20486;-56
2021/01/04 11:43:21;;;;;;;20.80;11.23;;;3.00;99.90;;;;;;5087563;28;20458;-57
2021/01/04 11:45:48;;;;;;;25.17;12.57;;;3.00;99.90;;;;;;5080767;28;20515;-56
2021/01/04 11:48:15;;;;;;;22.10;10.50;;;3.10;99.90;;;;;;5079785;28;20512;-55
2021/01/04 11:50:41;;;;;;;26.63;11.73;;;3.30;99.90;;;;;;5081137;28;20503;-57
2021/01/04 11:53:09;;;;;;;39.60;18.80;;;3.20;99.90;;;;;;5065180;28;20463;-57
2021/01/04 11:55:35;;;;;;;22.37;10.57;;;3.30;99.90;;;;;;5058705;28;20471;-57
2021/01/04 11:58:02;;;;;;;20.13;9.77;;;3.30;99.90;;;;;;5076272;28;20473;-55
2021/01/04 12:00:28;;;;;;;21.77;11.20;;;3.20;99.90;;;;;;5086155;28;21196;-54
2021/01/04 12:02:55;;;;;;;45.00;22.23;;;3.20;99.90;;;;;;5083690;28;20462;-55
2021/01/04 12:05:22;;;;;;;21.77;10.77;;;3.30;99.90;;;;;;5082319;28;20462;-55
2021/01/04 12:07:48;;;;;;;24.80;10.20;;;3.50;99.90;;;;;;5087773;28;20839;-55
2021/01/04 12:10:18;;;;;;;22.60;11.07;;;3.40;99.90;;;;;;5086886;28;20486;-55
2021/01/04 12:12:45;;;;;;;27.33;12.00;;;3.40;99.90;;;;;;5087052;28;20485;-54
2021/01/04 12:15:12;;;;;;;22.87;11.50;;;3.10;99.90;;;;;;5077466;28;20465;-57
2021/01/04 12:17:39;;;;;;;20.83;9.25;;;3.10;99.90;;;;;;5079527;28;20452;-56
2021/01/04 12:20:07;;;;;;;23.60;10.63;;;3.20;99.90;;;;;;5077280;28;20599;-56
2021/01/04 12:22:33;;;;;;;19.30;10.30;;;3.10;99.90;;;;;;5085330;28;20476;-56
2021/01/04 12:25:00;;;;;;;23.33;11.07;;;3.00;99.90;;;;;;5084441;28;20475;-56
2021/01/04 12:27:27;;;;;;;20.53;9.70;;;2.90;99.90;;;;;;5078415;28;20461;-56
2021/01/04 12:29:54;;;;;;;23.90;11.90;;;3.00;99.90;;;;;;5083830;28;20489;-54
2021/01/04 12:32:20;;;;;;;24.47;11.87;;;2.90;99.90;;;;;;5082469;28;20458;-54
2021/01/04 12:34:47;;;;;;;21.37;9.70;;;3.10;99.90;;;;;;5078081;28;20464;-54
2021/01/04 12:37:14;;;;;;;22.50;11.50;;;3.10;99.90;;;;;;5083138;28;20464;-54
2021/01/04 12:39:40;;;;;;;24.80;10.37;;;3.10;99.90;;;;;;5081742;28;20488;-54
2021/01/04 12:42:07;;;;;;;23.23;10.80;;;3.50;99.90;;;;;;5081936;28;20461;-54
2021/01/04 12:44:35;;;;;;;22.97;9.90;;;3.60;99.90;;;;;;5081708;28;20839;-54
2021/01/04 12:47:01;;;;;;;20.50;9.60;;;3.40;99.90;;;;;;5082073;28;20503;-54
2021/01/04 12:49:28;;;;;;;27.23;12.67;;;3.50;99.90;;;;;;5069794;28;20478;-54
2021/01/04 12:51:57;;;;;;;24.83;11.37;;;3.50;99.90;;;;;;5065797;28;20475;-54
2021/01/04 12:54:26;;;;;;;17.53;8.73;;;3.50;99.90;;;;;;5070271;28;20886;-54
2021/01/04 12:56:55;;;;;;;24.97;12.30;;;3.20;99.90;;;;;;5062671;28;20491;-54
2021/01/04 12:59:24;;;;;;;19.20;9.33;;;3.10;99.90;;;;;;5075071;28;20581;-56
2021/01/04 13:01:52;;;;;;;25.20;11.90;;;2.80;99.90;;;;;;5070799;28;20578;-56
2021/01/04 13:04:19;;;;;;;21.07;9.30;;;2.70;99.90;;;;;;5073830;28;20491;-56
2021/01/04 13:06:46;;;;;;;21.77;9.27;;;2.80;99.90;;;;;;5074029;28;20962;-56
2021/01/04 13:09:12;;;;;;;28.17;11.00;;;2.80;99.90;;;;;;5071646;28;20457;-56
2021/01/04 13:11:39;;;;;;;21.00;8.70;;;2.70;99.90;;;;;;5079247;28;20473;-55
2021/01/04 13:14:07;;;;;;;20.00;8.97;;;2.80;99.90;;;;;;5069247;28;20465;-56
2021/01/04 13:16:36;;;;;;;17.20;8.33;;;2.80;99.90;;;;;;5073156;28;20466;-56
2021/01/04 13:19:05;;;;;;;20.10;8.63;;;2.70;99.90;;;;;;5075771;28;22024;-56
2021/01/04 13:21:31;;;;;;;20.90;9.27;;;2.60;99.90;;;;;;5072834;28;20487;-56
2021/01/04 13:23:58;;;;;;;20.53;9.70;;;2.60;99.90;;;;;;5072905;28;20520;-55
2021/01/04 13:26:24;;;;;;;21.80;9.53;;;2.40;99.90;;;;;;5069891;28;20475;-56